sensor_id;sensor_type;location;lat;lon;timestamp;pressure;altitude;pressure_sealevel;temperature;humidity
37634;BME280;32048;49.902;22.508;2023-08-06T00:02:27;97368.84;;;18.94;100.00
37634;BME280;32048;49.902;22.508;2023-08-06T00:04:54;97371.19;;;18.88;100.00
37634;BME280;32048;49.902;22.508;2023-08-06T00:07:21;97365.66;;;18.82;100.00
37634;BME280;32048;49.902;22.508;2023-08-06T00:09:48;97368.84;;;18.77;100.00
37634;BME280;32048;49.902;22.508;2023-08-06T00:12:15;97364.94;;;18.72;100.00
37634;BME280;32048;49.902;22.508;2023-08-06T00:14:42;97361.78;;;18.68;100.00
37634;BME280;32048;49.902;22.508;2023-08-06T00:17:10;97370.09;;;18.65;100.00
37634;BME280;32048;49.902;22.508;2023-08-06T00:19:37;97366.94;;;18.61;100.00
37634;BME280;32048;49.902;22.508;2023-08-06T00:22:04;97359.41;;;18.57;100.00
37634;BME280;32048;49.902;22.508;2023-08-06T00:24:32;97350.88;;;18.53;100.00
37634;BME280;32048;49.902;22.508;2023-08-06T00:26:59;97359.25;;;18.50;100.00
37634;BME280;32048;49.902;22.508;2023-08-06T00:29:27;97363.91;;;18.48;100.00
37634;BME280;32048;49.902;22.508;2023-08-06T00:31:54;97360.72;;;18.44;100.00
37634;BME280;32048;49.902;22.508;2023-08-06T00:34:21;97365.38;;;18.42;100.00
37634;BME280;32048;49.902;22.508;2023-08-06T00:36:48;97360.38;;;18.39;100.00
37634;BME280;32048;49.902;22.508;2023-08-06T00:39:15;97359.03;;;18.35;100.00
37634;BME280;32048;49.902;22.508;2023-08-06T00:41:42;97366.53;;;18.32;100.00
37634;BME280;32048;49.902;22.508;2023-08-06T00:44:10;97361.50;;;18.28;100.00
37634;BME280;32048;49.902;22.508;2023-08-06T00:46:37;97360.00;;;18.26;100.00
37634;BME280;32048;49.902;22.508;2023-08-06T00:49:04;97352.63;;;18.20;100.00
37634;BME280;32048;49.902;22.508;2023-08-06T00:51:32;97356.47;;;18.17;100.00
37634;BME280;32048;49.902;22.508;2023-08-06T00:53:59;97359.28;;;18.16;100.00
37634;BME280;32048;49.902;22.508;2023-08-06T00:56:27;97348.78;;;18.14;100.00
37634;BME280;32048;49.902;22.508;2023-08-06T00:58:54;97344.13;;;18.16;100.00
37634;BME280;32048;49.902;22.508;2023-08-06T01:01:21;97348.31;;;18.19;100.00
37634;BME280;32048;49.902;22.508;2023-08-06T01:03:49;97355.00;;;18.23;100.00
37634;BME280;32048;49.902;22.508;2023-08-06T01:06:19;97342.28;;;18.25;100.00
37634;BME280;32048;49.902;22.508;2023-08-06T01:08:58;97338.13;;;18.31;100.00
37634;BME280;32048;49.902;22.508;2023-08-06T01:14:18;97335.50;;;18.39;100.00
37634;BME280;32048;49.902;22.508;2023-08-06T01:16:50;97330.16;;;18.47;100.00
37634;BME280;32048;49.902;22.508;2023-08-06T01:19:18;97326.97;;;18.52;100.00
37634;BME280;32048;49.902;22.508;2023-08-06T01:21:46;97328.16;;;18.57;100.00
37634;BME280;32048;49.902;22.508;2023-08-06T01:24:13;97318.63;;;18.63;100.00
37634;BME280;32048;49.902;22.508;2023-08-06T01:30:37;97328.53;;;18.70;100.00
37634;BME280;32048;49.902;22.508;2023-08-06T01:33:10;97319.47;;;18.72;100.00
37634;BME280;32048;49.902;22.508;2023-08-06T01:35:42;97313.16;;;18.73;100.00
37634;BME280;32048;49.902;22.508;2023-08-06T01:38:09;97317.47;;;18.74;100.00
37634;BME280;32048;49.902;22.508;2023-08-06T01:40:36;97318.50;;;18.73;100.00
37634;BME280;32048;49.902;22.508;2023-08-06T01:43:03;97318.31;;;18.74;100.00
37634;BME280;32048;49.902;22.508;2023-08-06T01:45:30;97326.03;;;18.77;100.00
37634;BME280;32048;49.902;22.508;2023-08-06T01:47:57;97320.50;;;18.79;100.00
37634;BME280;32048;49.902;22.508;2023-08-06T01:50:25;97326.53;;;18.81;100.00
37634;BME280;32048;49.902;22.508;2023-08-06T01:52:51;97322.03;;;18.81;100.00
37634;BME280;32048;49.902;22.508;2023-08-06T01:55:19;97316.19;;;18.78;100.00
37634;BME280;32048;49.902;22.508;2023-08-06T01:57:46;97310.97;;;18.76;100.00
37634;BME280;32048;49.902;22.508;2023-08-06T02:00:13;97313.50;;;18.78;100.00
37634;BME280;32048;49.902;22.508;2023-08-06T02:02:40;97312.50;;;18.79;100.00
37634;BME280;32048;49.902;22.508;2023-08-06T02:05:10;97306.97;;;18.80;100.00
37634;BME280;32048;49.902;22.508;2023-08-06T02:07:37;97307.66;;;18.82;100.00
37634;BME280;32048;49.902;22.508;2023-08-06T02:10:05;97308.16;;;18.86;100.00
37634;BME280;32048;49.902;22.508;2023-08-06T02:12:32;97306.31;;;18.86;100.00
37634;BME280;32048;49.902;22.508;2023-08-06T02:14:59;97293.09;;;18.85;100.00
37634;BME280;32048;49.902;22.508;2023-08-06T02:17:26;97294.13;;;18.84;100.00
37634;BME280;32048;49.902;22.508;2023-08-06T02:19:53;97293.09;;;18.85;100.00
37634;BME280;32048;49.902;22.508;2023-08-06T02:22:20;97281.22;;;18.87;100.00
37634;BME280;32048;49.902;22.508;2023-08-06T02:24:49;97277.56;;;18.88;100.00
37634;BME280;32048;49.902;22.508;2023-08-06T02:27:16;97273.03;;;18.89;100.00
37634;BME280;32048;49.902;22.508;2023-08-06T02:29:43;97269.19;;;18.92;100.00
37634;BME280;32048;49.902;22.508;2023-08-06T02:32:12;97263.84;;;18.92;100.00
37634;BME280;32048;49.902;22.508;2023-08-06T02:34:39;97265.19;;;18.96;100.00
37634;BME280;32048;49.902;22.508;2023-08-06T02:37:06;97265.19;;;18.96;100.00
37634;BME280;32048;49.902;22.508;2023-08-06T02:39:33;97259.84;;;18.96;100.00
37634;BME280;32048;49.902;22.508;2023-08-06T02:42:02;97259.69;;;18.97;100.00
37634;BME280;32048;49.902;22.508;2023-08-06T02:44:29;97260.50;;;18.98;100.00
37634;BME280;32048;49.902;22.508;2023-08-06T02:46:56;97265.84;;;18.98;100.00
37634;BME280;32048;49.902;22.508;2023-08-06T02:49:23;97257.47;;;19.01;100.00
37634;BME280;32048;49.902;22.508;2023-08-06T02:51:51;97258.34;;;19.01;100.00
37634;BME280;32048;49.902;22.508;2023-08-06T02:54:19;97261.84;;;19.02;100.00
37634;BME280;32048;49.902;22.508;2023-08-06T02:56:46;97260.81;;;19.03;100.00
37634;BME280;32048;49.902;22.508;2023-08-06T02:59:13;97252.63;;;19.04;100.00
37634;BME280;32048;49.902;22.508;2023-08-06T03:01:40;97248.78;;;19.07;100.00
37634;BME280;32048;49.902;22.508;2023-08-06T03:04:07;97251.97;;;19.10;100.00
37634;BME280;32048;49.902;22.508;2023-08-06T03:06:34;97241.94;;;19.13;100.00
37634;BME280;32048;49.902;22.508;2023-08-06T03:09:02;97240.91;;;19.14;100.00
37634;BME280;32048;49.902;22.508;2023-08-06T03:11:29;97239.88;;;19.15;100.00
37634;BME280;32048;49.902;22.508;2023-08-06T03:13:56;97234.22;;;19.18;100.00
37634;BME280;32048;49.902;22.508;2023-08-06T03:16:23;97242.56;;;19.23;100.00
37634;BME280;32048;49.902;22.508;2023-08-06T03:18:50;97244.03;;;19.25;100.00
37634;BME280;32048;49.902;22.508;2023-08-06T03:21:17;97234.84;;;19.28;100.00
37634;BME280;32048;49.902;22.508;2023-08-06T03:23:47;97235.50;;;19.30;100.00
37634;BME280;32048;49.902;22.508;2023-08-06T03:26:15;97237.84;;;19.33;100.00
37634;BME280;32048;49.902;22.508;2023-08-06T03:28:42;97236.84;;;19.34;100.00
37634;BME280;32048;49.902;22.508;2023-08-06T03:31:09;97243.00;;;19.35;100.00
37634;BME280;32048;49.902;22.508;2023-08-06T03:33:36;97232.81;;;19.38;100.00
37634;BME280;32048;49.902;22.508;2023-08-06T03:36:03;97236.16;;;19.40;100.00
37634;BME280;32048;49.902;22.508;2023-08-06T03:38:31;97223.44;;;19.42;100.00
37634;BME280;32048;49.902;22.508;2023-08-06T03:40:58;97230.44;;;19.43;100.00
37634;BME280;32048;49.902;22.508;2023-08-06T03:43:25;97219.41;;;19.46;100.00
37634;BME280;32048;49.902;22.508;2023-08-06T03:45:52;97227.06;;;19.49;100.00
37634;BME280;32048;49.902;22.508;2023-08-06T03:48:19;97223.88;;;19.54;100.00
37634;BME280;32048;49.902;22.508;2023-08-06T03:50:46;97212.81;;;19.57;100.00
37634;BME280;32048;49.902;22.508;2023-08-06T03:53:13;97206.59;;;19.65;100.00
37634;BME280;32048;49.902;22.508;2023-08-06T03:55:40;97208.25;;;19.74;100.00
37634;BME280;32048;49.902;22.508;2023-08-06T03:58:08;97199.16;;;19.83;100.00
37634;BME280;32048;49.902;22.508;2023-08-06T04:00:34;97188.19;;;19.93;100.00
37634;BME280;32048;49.902;22.508;2023-08-06T04:03:02;97187.34;;;20.01;100.00
37634;BME280;32048;49.902;22.508;2023-08-06T04:05:31;97183.75;;;20.08;100.00
37634;BME280;32048;49.902;22.508;2023-08-06T04:07:59;97185.72;;;20.14;100.00
37634;BME280;32048;49.902;22.508;2023-08-06T04:10:27;97177.97;;;20.20;100.00
37634;BME280;32048;49.902;22.508;2023-08-06T04:12:54;97176.78;;;20.22;100.00
37634;BME280;32048;49.902;22.508;2023-08-06T04:15:21;97176.78;;;20.22;100.00
37634;BME280;32048;49.902;22.508;2023-08-06T04:17:48;97168.72;;;20.22;100.00
37634;BME280;32048;49.902;22.508;2023-08-06T04:20:15;97171.41;;;20.22;100.00
37634;BME280;32048;49.902;22.508;2023-08-06T04:22:42;97158.00;;;20.22;100.00
37634;BME280;32048;49.902;22.508;2023-08-06T04:25:09;97160.34;;;20.25;100.00
37634;BME280;32048;49.902;22.508;2023-08-06T04:27:36;97157.78;;;20.32;100.00
37634;BME280;32048;49.902;22.508;2023-08-06T04:30:08;97154.84;;;20.42;100.00
37634;BME280;32048;49.902;22.508;2023-08-06T04:32:36;97156.91;;;20.54;100.00
37634;BME280;32048;49.902;22.508;2023-08-06T04:35:03;97149.28;;;20.66;100.00
37634;BME280;32048;49.902;22.508;2023-08-06T04:37:31;97155.56;;;20.73;100.00
37634;BME280;32048;49.902;22.508;2023-08-06T04:39:57;97144.78;;;20.82;100.00
37634;BME280;32048;49.902;22.508;2023-08-06T04:42:25;97146.50;;;20.89;100.00
37634;BME280;32048;49.902;22.508;2023-08-06T04:44:52;97150.97;;;20.97;100.00
37634;BME280;32048;49.902;22.508;2023-08-06T04:47:19;97140.78;;;21.07;100.00
37634;BME280;32048;49.902;22.508;2023-08-06T04:49:46;97138.66;;;21.17;100.00
37634;BME280;32048;49.902;22.508;2023-08-06T04:52:13;97136.88;;;21.25;100.00
37634;BME280;32048;49.902;22.508;2023-08-06T04:54:40;97128.53;;;21.34;100.00
37634;BME280;32048;49.902;22.508;2023-08-06T04:57:07;97129.50;;;21.42;100.00
37634;BME280;32048;49.902;22.508;2023-08-06T04:59:34;97127.72;;;21.49;100.00
37634;BME280;32048;49.902;22.508;2023-08-06T05:02:01;97117.88;;;21.56;100.00
37634;BME280;32048;49.902;22.508;2023-08-06T05:04:28;97115.44;;;21.61;100.00
37634;BME280;32048;49.902;22.508;2023-08-06T05:06:56;97118.75;;;21.78;100.00
37634;BME280;32048;49.902;22.508;2023-08-06T05:09:22;97109.25;;;22.04;100.00
37634;BME280;32048;49.902;22.508;2023-08-06T05:11:50;97105.88;;;22.38;100.00
37634;BME280;32048;49.902;22.508;2023-08-06T05:14:17;97116.94;;;22.84;100.00
37634;BME280;32048;49.902;22.508;2023-08-06T05:16:44;97115.16;;;23.33;100.00
37634;BME280;32048;49.902;22.508;2023-08-06T05:19:11;97115.78;;;23.83;100.00
37634;BME280;32048;49.902;22.508;2023-08-06T05:21:39;97113.72;;;24.25;100.00
37634;BME280;32048;49.902;22.508;2023-08-06T05:24:05;97113.31;;;24.68;100.00
37634;BME280;32048;49.902;22.508;2023-08-06T05:26:33;97113.22;;;25.15;100.00
37634;BME280;32048;49.902;22.508;2023-08-06T05:29:00;97109.91;;;25.65;100.00
37634;BME280;32048;49.902;22.508;2023-08-06T05:31:28;97109.88;;;26.17;100.00
37634;BME280;32048;49.902;22.508;2023-08-06T05:33:55;97101.53;;;26.68;98.46
37634;BME280;32048;49.902;22.508;2023-08-06T05:36:22;97109.56;;;27.00;89.43
37634;BME280;32048;49.902;22.508;2023-08-06T05:38:49;97117.16;;;27.10;86.64
37634;BME280;32048;49.902;22.508;2023-08-06T05:41:17;97110.00;;;27.15;87.21
37634;BME280;32048;49.902;22.508;2023-08-06T05:43:44;97106.84;;;27.37;86.10
37634;BME280;32048;49.902;22.508;2023-08-06T05:46:11;97101.13;;;27.75;83.14
37634;BME280;32048;49.902;22.508;2023-08-06T05:48:38;97106.72;;;28.11;80.87
37634;BME280;32048;49.902;22.508;2023-08-06T05:51:06;97098.75;;;28.39;78.43
37634;BME280;32048;49.902;22.508;2023-08-06T05:53:33;97099.03;;;28.62;74.11
37634;BME280;32048;49.902;22.508;2023-08-06T05:56:00;97095.38;;;28.79;76.35
37634;BME280;32048;49.902;22.508;2023-08-06T05:58:27;97090.03;;;28.96;73.64
37634;BME280;32048;49.902;22.508;2023-08-06T06:00:56;97096.75;;;29.06;72.84
37634;BME280;32048;49.902;22.508;2023-08-06T06:03:23;97099.47;;;28.94;69.94
37634;BME280;32048;49.902;22.508;2023-08-06T06:05:50;97090.88;;;28.50;72.67
37634;BME280;32048;49.902;22.508;2023-08-06T06:08:17;97086.56;;;28.30;76.59
37634;BME280;32048;49.902;22.508;2023-08-06T06:10:45;97085.28;;;28.33;70.53
37634;BME280;32048;49.902;22.508;2023-08-06T06:13:11;97085.44;;;28.62;66.43
37634;BME280;32048;49.902;22.508;2023-08-06T06:15:39;97077.63;;;29.00;65.47
37634;BME280;32048;49.902;22.508;2023-08-06T06:18:06;97072.28;;;29.29;57.90
37634;BME280;32048;49.902;22.508;2023-08-06T06:20:33;97070.88;;;29.84;53.17
37634;BME280;32048;49.902;22.508;2023-08-06T06:23:00;97061.03;;;30.12;54.68
37634;BME280;32048;49.902;22.508;2023-08-06T06:25:30;97056.81;;;30.04;52.94
37634;BME280;32048;49.902;22.508;2023-08-06T06:27:57;97070.63;;;30.14;52.01
37634;BME280;32048;49.902;22.508;2023-08-06T06:30:26;97062.34;;;29.92;51.50
37634;BME280;32048;49.902;22.508;2023-08-06T06:32:53;97064.00;;;29.64;52.42
37634;BME280;32048;49.902;22.508;2023-08-06T06:35:21;97066.28;;;29.56;52.88
37634;BME280;32048;49.902;22.508;2023-08-06T06:37:48;97063.09;;;29.47;54.19
37634;BME280;32048;49.902;22.508;2023-08-06T06:40:16;97064.81;;;29.65;52.92
37634;BME280;32048;49.902;22.508;2023-08-06T06:42:43;97063.63;;;29.73;50.92
37634;BME280;32048;49.902;22.508;2023-08-06T06:45:10;97061.47;;;29.75;51.95
37634;BME280;32048;49.902;22.508;2023-08-06T06:47:37;97053.06;;;29.76;51.66
37634;BME280;32048;49.902;22.508;2023-08-06T06:50:05;97056.66;;;30.11;51.55
37634;BME280;32048;49.902;22.508;2023-08-06T06:52:32;97050.41;;;30.44;49.90
37634;BME280;32048;49.902;22.508;2023-08-06T06:54:59;97049.59;;;30.43;51.51
37634;BME280;32048;49.902;22.508;2023-08-06T06:57:26;97047.69;;;30.44;50.45
37634;BME280;32048;49.902;22.508;2023-08-06T06:59:54;97042.66;;;30.36;50.01
37634;BME280;32048;49.902;22.508;2023-08-06T07:02:21;97053.38;;;30.25;49.52
37634;BME280;32048;49.902;22.508;2023-08-06T07:04:49;97040.16;;;30.00;52.17
37634;BME280;32048;49.902;22.508;2023-08-06T07:07:16;97041.81;;;30.18;54.29
37634;BME280;32048;49.902;22.508;2023-08-06T07:09:44;97048.69;;;30.38;52.05
37634;BME280;32048;49.902;22.508;2023-08-06T07:12:11;97049.78;;;30.76;51.27
37634;BME280;32048;49.902;22.508;2023-08-06T07:14:38;97040.91;;;31.24;49.03
37634;BME280;32048;49.902;22.508;2023-08-06T07:17:05;97043.56;;;31.63;47.09
37634;BME280;32048;49.902;22.508;2023-08-06T07:19:33;97043.91;;;31.72;48.21
37634;BME280;32048;49.902;22.508;2023-08-06T07:22:00;97039.47;;;31.66;47.31
37634;BME280;32048;49.902;22.508;2023-08-06T07:24:27;97042.13;;;31.83;46.93
37634;BME280;32048;49.902;22.508;2023-08-06T07:26:54;97040.63;;;32.24;46.25
37634;BME280;32048;49.902;22.508;2023-08-06T07:29:21;97030.66;;;32.45;46.98
37634;BME280;32048;49.902;22.508;2023-08-06T07:31:49;97042.63;;;32.39;45.01
37634;BME280;32048;49.902;22.508;2023-08-06T07:34:17;97040.59;;;32.57;44.88
37634;BME280;32048;49.902;22.508;2023-08-06T07:36:45;97045.94;;;32.09;45.88
37634;BME280;32048;49.902;22.508;2023-08-06T07:39:13;97036.63;;;31.51;46.12
37634;BME280;32048;49.902;22.508;2023-08-06T07:41:40;97035.81;;;31.77;47.39
37634;BME280;32048;49.902;22.508;2023-08-06T07:44:08;97032.13;;;31.94;47.41
37634;BME280;32048;49.902;22.508;2023-08-06T07:46:35;97036.84;;;31.98;47.65
37634;BME280;32048;49.902;22.508;2023-08-06T07:49:02;97044.66;;;32.22;45.77
37634;BME280;32048;49.902;22.508;2023-08-06T07:51:29;97031.84;;;32.55;45.24
37634;BME280;32048;49.902;22.508;2023-08-06T07:53:56;97030.31;;;32.74;43.90
37634;BME280;32048;49.902;22.508;2023-08-06T07:56:23;97031.97;;;32.05;45.10
37634;BME280;32048;49.902;22.508;2023-08-06T07:58:51;97025.69;;;31.28;46.97
37634;BME280;32048;49.902;22.508;2023-08-06T08:01:18;97038.25;;;30.85;49.91
37634;BME280;32048;49.902;22.508;2023-08-06T08:03:45;97026.75;;;30.83;49.57
37634;BME280;32048;49.902;22.508;2023-08-06T08:06:12;97026.50;;;31.29;47.99
37634;BME280;32048;49.902;22.508;2023-08-06T08:08:40;97031.41;;;32.03;47.55
37634;BME280;32048;49.902;22.508;2023-08-06T08:11:07;97033.50;;;32.23;45.55
37634;BME280;32048;49.902;22.508;2023-08-06T08:13:34;97023.25;;;32.08;47.67
37634;BME280;32048;49.902;22.508;2023-08-06T08:16:02;97008.91;;;32.23;45.79
37634;BME280;32048;49.902;22.508;2023-08-06T08:18:32;96992.63;;;32.81;45.54
37634;BME280;32048;49.902;22.508;2023-08-06T08:20:59;96994.78;;;33.37;45.10
37634;BME280;32048;49.902;22.508;2023-08-06T08:23:26;96995.59;;;33.38;43.97
37634;BME280;32048;49.902;22.508;2023-08-06T08:25:53;96991.78;;;33.39;45.22
37634;BME280;32048;49.902;22.508;2023-08-06T08:28:21;97001.72;;;33.60;47.14
37634;BME280;32048;49.902;22.508;2023-08-06T08:30:48;97010.75;;;33.76;44.14
37634;BME280;32048;49.902;22.508;2023-08-06T08:33:15;97002.09;;;33.11;45.14
37634;BME280;32048;49.902;22.508;2023-08-06T08:35:42;96998.19;;;33.02;45.51
37634;BME280;32048;49.902;22.508;2023-08-06T08:38:09;97008.72;;;33.36;44.88
37634;BME280;32048;49.902;22.508;2023-08-06T08:40:41;97014.44;;;33.24;43.86
37634;BME280;32048;49.902;22.508;2023-08-06T08:43:12;96988.59;;;32.94;44.80
37634;BME280;32048;49.902;22.508;2023-08-06T08:45:42;96978.66;;;32.78;43.94
37634;BME280;32048;49.902;22.508;2023-08-06T08:48:11;96978.16;;;32.81;46.45
37634;BME280;32048;49.902;22.508;2023-08-06T08:50:44;96984.88;;;32.20;48.63
37634;BME280;32048;49.902;22.508;2023-08-06T08:53:13;96990.28;;;32.15;49.95
37634;BME280;32048;49.902;22.508;2023-08-06T08:55:42;96986.44;;;31.84;48.38
37634;BME280;32048;49.902;22.508;2023-08-06T08:58:10;96993.38;;;31.15;49.56
37634;BME280;32048;49.902;22.508;2023-08-06T09:00:38;96991.41;;;31.11;53.40
37634;BME280;32048;49.902;22.508;2023-08-06T09:03:06;96984.31;;;31.59;51.64
37634;BME280;32048;49.902;22.508;2023-08-06T09:05:34;96972.47;;;32.07;50.60
37634;BME280;32048;49.902;22.508;2023-08-06T09:08:04;96969.66;;;31.97;49.54
37634;BME280;32048;49.902;22.508;2023-08-06T09:10:31;96980.38;;;31.77;49.47
37634;BME280;32048;49.902;22.508;2023-08-06T09:12:58;96968.69;;;31.27;50.78
37634;BME280;32048;49.902;22.508;2023-08-06T09:15:28;96956.91;;;30.77;51.91
37634;BME280;32048;49.902;22.508;2023-08-06T09:17:55;96965.09;;;30.38;54.79
37634;BME280;32048;49.902;22.508;2023-08-06T09:20:23;96957.13;;;29.98;58.46
37634;BME280;32048;49.902;22.508;2023-08-06T09:22:53;96965.88;;;29.54;59.21
37634;BME280;32048;49.902;22.508;2023-08-06T09:25:24;96967.13;;;29.18;62.09
37634;BME280;32048;49.902;22.508;2023-08-06T09:27:52;96962.56;;;28.83;62.22
37634;BME280;32048;49.902;22.508;2023-08-06T09:30:30;96969.50;;;28.50;64.25
37634;BME280;32048;49.902;22.508;2023-08-06T09:32:58;96955.66;;;28.40;65.32
37634;BME280;32048;49.902;22.508;2023-08-06T09:35:28;96965.38;;;28.48;64.45
37634;BME280;32048;49.902;22.508;2023-08-06T09:38:09;96961.00;;;29.11;64.18
37634;BME280;32048;49.902;22.508;2023-08-06T09:40:38;96954.47;;;29.69;59.51
37634;BME280;32048;49.902;22.508;2023-08-06T09:43:06;96951.31;;;30.11;61.68
37634;BME280;32048;49.902;22.508;2023-08-06T09:45:37;96955.69;;;30.29;57.86
37634;BME280;32048;49.902;22.508;2023-08-06T09:48:06;96956.31;;;30.53;55.40
37634;BME280;32048;49.902;22.508;2023-08-06T09:50:36;96959.69;;;31.04;56.83
37634;BME280;32048;49.902;22.508;2023-08-06T09:53:07;96945.50;;;31.02;52.63
37634;BME280;32048;49.902;22.508;2023-08-06T09:55:36;96958.78;;;30.55;50.44
37634;BME280;32048;49.902;22.508;2023-08-06T09:58:03;96971.19;;;29.95;52.67
37634;BME280;32048;49.902;22.508;2023-08-06T10:00:30;96972.34;;;29.36;53.22
37634;BME280;32048;49.902;22.508;2023-08-06T10:03:04;96961.34;;;29.02;57.44
37634;BME280;32048;49.902;22.508;2023-08-06T10:05:32;96988.59;;;28.67;63.04
37634;BME280;32048;49.902;22.508;2023-08-06T10:08:01;96998.50;;;28.38;64.39
37634;BME280;32048;49.902;22.508;2023-08-06T10:10:29;96973.59;;;28.29;65.26
37634;BME280;32048;49.902;22.508;2023-08-06T10:12:58;96982.19;;;28.85;64.03
37634;BME280;32048;49.902;22.508;2023-08-06T10:15:30;96994.91;;;28.96;61.25
37634;BME280;32048;49.902;22.508;2023-08-06T10:17:59;96965.81;;;28.56;61.81
37634;BME280;32048;49.902;22.508;2023-08-06T10:20:33;96981.88;;;28.34;63.22
37634;BME280;32048;49.902;22.508;2023-08-06T10:25:35;96959.63;;;28.85;61.89
37634;BME280;32048;49.902;22.508;2023-08-06T10:28:10;96965.97;;;29.02;61.57
37634;BME280;32048;49.902;22.508;2023-08-06T10:30:47;96957.72;;;29.26;55.45
37634;BME280;32048;49.902;22.508;2023-08-06T10:33:14;96942.91;;;29.62;58.30
37634;BME280;32048;49.902;22.508;2023-08-06T10:35:46;96930.78;;;30.03;53.66
37634;BME280;32048;49.902;22.508;2023-08-06T10:38:21;96934.13;;;30.44;52.84
37634;BME280;32048;49.902;22.508;2023-08-06T10:41:02;96926.47;;;30.63;51.60
37634;BME280;32048;49.902;22.508;2023-08-06T10:43:32;96932.00;;;30.91;50.52
37634;BME280;32048;49.902;22.508;2023-08-06T10:46:02;96935.69;;;31.51;49.33
37634;BME280;32048;49.902;22.508;2023-08-06T10:48:31;96939.63;;;31.97;47.55
37634;BME280;32048;49.902;22.508;2023-08-06T10:51:00;96935.19;;;32.28;44.49
37634;BME280;32048;49.902;22.508;2023-08-06T10:53:28;96932.09;;;32.57;43.34
37634;BME280;32048;49.902;22.508;2023-08-06T10:56:00;96938.44;;;32.63;42.66
37634;BME280;32048;49.902;22.508;2023-08-06T10:58:35;96928.41;;;32.84;44.89
37634;BME280;32048;49.902;22.508;2023-08-06T11:01:02;96936.09;;;32.97;43.62
37634;BME280;32048;49.902;22.508;2023-08-06T11:03:29;96936.59;;;32.89;43.13
37634;BME280;32048;49.902;22.508;2023-08-06T11:05:57;96930.97;;;33.16;43.44
37634;BME280;32048;49.902;22.508;2023-08-06T11:08:29;96931.00;;;33.21;41.22
37634;BME280;32048;49.902;22.508;2023-08-06T11:11:07;96936.47;;;33.31;43.18
37634;BME280;32048;49.902;22.508;2023-08-06T11:13:35;96938.13;;;33.27;40.73
37634;BME280;32048;49.902;22.508;2023-08-06T11:16:02;96955.06;;;33.14;39.75
37634;BME280;32048;49.902;22.508;2023-08-06T11:18:29;96929.16;;;32.26;39.87
37634;BME280;32048;49.902;22.508;2023-08-06T11:21:01;96950.59;;;31.43;39.74
37634;BME280;32048;49.902;22.508;2023-08-06T11:23:29;96946.63;;;30.84;41.88
37634;BME280;32048;49.902;22.508;2023-08-06T11:25:57;96959.03;;;30.75;42.85
37634;BME280;32048;49.902;22.508;2023-08-06T11:28:24;96948.09;;;30.70;43.32
37634;BME280;32048;49.902;22.508;2023-08-06T11:30:53;96944.53;;;30.48;42.18
37634;BME280;32048;49.902;22.508;2023-08-06T11:33:28;96958.19;;;30.14;44.07
37634;BME280;32048;49.902;22.508;2023-08-06T11:35:57;96945.69;;;30.18;44.09
37634;BME280;32048;49.902;22.508;2023-08-06T11:38:28;96952.78;;;30.36;41.75
37634;BME280;32048;49.902;22.508;2023-08-06T11:40:56;96961.97;;;30.30;43.65
37634;BME280;32048;49.902;22.508;2023-08-06T11:43:23;96969.56;;;30.28;43.67
37634;BME280;32048;49.902;22.508;2023-08-06T11:45:51;96956.41;;;30.24;46.70
37634;BME280;32048;49.902;22.508;2023-08-06T11:48:21;96947.84;;;30.33;42.29
37634;BME280;32048;49.902;22.508;2023-08-06T11:51:13;96947.84;;;30.33;43.94
37634;BME280;32048;49.902;22.508;2023-08-06T11:53:48;96951.03;;;30.46;42.89
37634;BME280;32048;49.902;22.508;2023-08-06T11:56:16;96974.88;;;30.56;40.90
37634;BME280;32048;49.902;22.508;2023-08-06T11:58:44;96941.34;;;30.78;40.90
37634;BME280;32048;49.902;22.508;2023-08-06T12:01:11;96939.53;;;30.83;43.37
37634;BME280;32048;49.902;22.508;2023-08-06T12:03:41;96933.34;;;30.88;43.25
37634;BME280;32048;49.902;22.508;2023-08-06T12:06:08;96939.91;;;31.14;44.11
37634;BME280;32048;49.902;22.508;2023-08-06T12:08:39;96937.53;;;31.23;40.11
37634;BME280;32048;49.902;22.508;2023-08-06T12:11:23;96946.81;;;31.22;41.05
37634;BME280;32048;49.902;22.508;2023-08-06T12:13:51;96943.88;;;31.01;43.92
37634;BME280;32048;49.902;22.508;2023-08-06T12:16:18;96951.63;;;30.88;43.02
37634;BME280;32048;49.902;22.508;2023-08-06T12:18:47;96940.03;;;30.80;41.75
37634;BME280;32048;49.902;22.508;2023-08-06T12:21:16;96942.91;;;30.30;42.18
37634;BME280;32048;49.902;22.508;2023-08-06T12:23:43;96939.31;;;29.73;43.65
37634;BME280;32048;49.902;22.508;2023-08-06T12:26:10;96940.72;;;29.64;45.98
37634;BME280;32048;49.902;22.508;2023-08-06T12:28:38;96969.97;;;29.69;44.53
37634;BME280;32048;49.902;22.508;2023-08-06T12:31:26;96964.41;;;29.63;43.72
37634;BME280;32048;49.902;22.508;2023-08-06T12:33:53;96968.19;;;29.05;45.73
37634;BME280;32048;49.902;22.508;2023-08-06T12:36:29;96969.72;;;28.72;46.82
37634;BME280;32048;49.902;22.508;2023-08-06T12:42:50;96960.28;;;28.04;50.38
37634;BME280;32048;49.902;22.508;2023-08-06T12:45:18;96950.03;;;28.30;49.99
37634;BME280;32048;49.902;22.508;2023-08-06T12:47:48;96946.09;;;28.73;48.57
37634;BME280;32048;49.902;22.508;2023-08-06T12:50:18;96971.53;;;28.95;45.83
37634;BME280;32048;49.902;22.508;2023-08-06T12:52:45;96974.03;;;28.97;44.36
37634;BME280;32048;49.902;22.508;2023-08-06T12:55:50;96972.63;;;28.83;47.18
37634;BME280;32048;49.902;22.508;2023-08-06T12:58:17;96969.44;;;28.86;46.26
37634;BME280;32048;49.902;22.508;2023-08-06T13:00:44;96964.25;;;28.84;46.14
37634;BME280;32048;49.902;22.508;2023-08-06T13:03:20;96952.09;;;28.75;46.85
37634;BME280;32048;49.902;22.508;2023-08-06T13:05:51;96950.69;;;28.60;46.58